Time;durP1;ratioP1;P1;durP2;ratioP2;P2;SDS_P1;SDS_P2;PMS_P1;PMS_P2;Temp;Humidity;BMP_temperature;BMP_pressure;BME280_temperature;BME280_humidity;BME280_pressure;Samples;Min_cycle;Max_cycle;Signal;HPM_P1;HPM_P2
2023/03/10 00:00:43;;;;;;;8.93;4.95;;;;;;;-1.86;72.56;146869.84;5138262;27;20082;-65
2023/03/10 00:03:09;;;;;;;12.15;5.47;;;;;;;-1.73;73.33;146902.84;5143285;27;20061;-64
2023/03/10 00:05:38;;;;;;;14.63;5.50;;;;;;;-1.75;73.04;146897.78;5149330;27;20037;-65
2023/03/10 00:08:05;;;;;;;11.57;5.07;;;;;;;-1.70;72.00;146909.19;5149220;27;20031;-65
2023/03/10 00:10:30;;;;;;;14.20;4.85;;;;;;;-1.76;72.97;146893.97;5152821;27;20019;-65
2023/03/10 00:12:56;;;;;;;12.23;5.28;;;;;;;-1.79;73.06;146886.38;5147029;27;20081;-65
2023/03/10 00:15:22;;;;;;;8.05;5.00;;;;;;;-1.79;71.70;146887.63;5158135;27;20137;-65
2023/03/10 00:17:54;;;;;;;9.20;5.35;;;;;;;-1.83;71.89;146877.47;5149467;27;20031;-64
2023/03/10 00:20:21;;;;;;;10.43;4.88;;;;;;;-1.95;71.69;146847.03;5151903;27;20045;-65
2023/03/10 00:22:46;;;;;;;9.43;5.00;;;;;;;-1.92;72.47;146855.88;5153009;27;20075;-64
2023/03/10 00:25:14;;;;;;;7.65;4.57;;;;;;;-1.94;72.61;146850.84;5145885;27;20043;-65
2023/03/10 00:27:39;;;;;;;10.35;4.70;;;;;;;-1.95;72.52;146848.28;5143178;27;20030;-64
2023/03/10 00:30:06;;;;;;;8.75;4.65;;;;;;;-1.99;72.21;146836.88;5149926;27;20115;-64
2023/03/10 00:32:34;;;;;;;5.85;4.03;;;;;;;-2.02;71.77;146830.50;5152793;27;20030;-66
2023/03/10 00:35:00;;;;;;;6.43;4.20;;;;;;;-1.94;70.40;146850.84;5151324;27;20319;-66
2023/03/10 00:37:26;;;;;;;9.90;4.63;;;;;;;-1.89;72.07;146861.00;5128044;27;20035;-65
2023/03/10 00:39:52;;;;;;;5.25;4.00;;;;;;;-1.91;71.27;146858.44;5151988;27;20043;-65
2023/03/10 00:42:18;;;;;;;6.18;3.72;;;;;;;-1.85;71.56;146871.09;5138883;27;20035;-64
2023/03/10 00:44:43;;;;;;;5.88;3.80;;;;;;;-1.96;70.40;146845.72;5155088;27;20102;-64
2023/03/10 00:47:09;;;;;;;6.88;4.55;;;;;;;-1.92;70.66;146855.88;5154112;27;20034;-65
2023/03/10 00:49:34;;;;;;;5.25;4.35;;;;;;;-2.02;69.87;146830.50;5145537;27;20026;-65
2023/03/10 00:52:00;;;;;;;8.32;4.60;;;;;;;-1.98;70.43;146840.69;5157447;27;20023;-65
2023/03/10 00:54:25;;;;;;;4.90;4.00;;;;;;;-1.94;69.74;146850.84;5150695;27;20253;-65
2023/03/10 00:56:51;;;;;;;6.35;4.78;;;;;;;-1.96;69.51;146845.72;5155783;27;20087;-66
2023/03/10 00:59:16;;;;;;;6.00;4.32;;;;;;;-1.94;70.85;146849.53;5154753;27;20042;-66
2023/03/10 01:01:42;;;;;;;8.55;4.15;;;;;;;-2.05;69.19;146822.91;5142633;27;20022;-66
2023/03/10 01:04:12;;;;;;;6.07;4.18;;;;;;;-2.18;68.84;146789.88;5142791;27;20046;-64
2023/03/10 01:06:38;;;;;;;6.68;3.80;;;;;;;-2.06;69.51;146819.09;5151568;27;20037;-64
2023/03/10 01:09:03;;;;;;;6.35;3.72;;;;;;;-2.12;69.56;146805.16;5142641;27;20024;-65
2023/03/10 01:11:30;;;;;;;5.30;3.33;;;;;;;-2.16;69.87;146795.00;5151643;27;20067;-65
2023/03/10 01:14:01;;;;;;;4.90;3.72;;;;;;;-2.23;68.90;146778.47;5124851;28;20038;-65
2023/03/10 01:16:27;;;;;;;5.00;3.85;;;;;;;-2.21;70.18;146783.53;5143380;27;20019;-65
2023/03/10 01:18:53;;;;;;;4.93;3.58;;;;;;;-2.21;70.46;146782.28;5150974;27;20019;-65
2023/03/10 01:21:25;;;;;;;7.32;4.05;;;;;;;-2.23;69.29;146778.47;5143021;27;20031;-66
2023/03/10 01:23:51;;;;;;;7.45;4.15;;;;;;;-2.21;70.36;146783.53;5151689;27;20078;-65
2023/03/10 01:26:17;;;;;;;5.07;4.20;;;;;;;-2.22;69.73;146781.03;5143691;27;20177;-65
2023/03/10 01:28:42;;;;;;;6.20;4.00;;;;;;;-2.21;69.49;146782.28;5145086;27;20039;-66
2023/03/10 01:31:08;;;;;;;5.68;3.97;;;;;;;-2.26;69.96;146772.13;5149014;27;20062;-65
2023/03/10 01:33:35;;;;;;;7.50;4.18;;;;;;;-2.27;70.97;146769.63;5142287;28;20046;-65
2023/03/10 01:36:05;;;;;;;5.25;3.80;;;;;;;-2.23;70.39;146778.47;5145494;27;20027;-65
2023/03/10 01:38:31;;;;;;;5.67;3.90;;;;;;;-2.17;70.40;146792.44;5144164;27;20019;-64
2023/03/10 01:40:57;;;;;;;6.80;3.95;;;;;;;-2.26;69.51;146770.88;5135922;28;20047;-65
2023/03/10 01:43:30;;;;;;;5.28;3.80;;;;;;;-2.26;70.42;146772.13;5126911;28;20036;-65
2023/03/10 01:45:56;;;;;;;6.28;4.03;;;;;;;-2.19;69.71;146787.38;5138508;27;20046;-65
2023/03/10 01:48:22;;;;;;;5.68;3.90;;;;;;;-2.30;70.53;146760.72;5135061;27;20027;-65
2023/03/10 01:50:52;;;;;;;4.57;3.72;;;;;;;-2.41;70.75;146732.81;5138498;27;20054;-65
2023/03/10 01:53:19;;;;;;;5.00;4.03;;;;;;;-2.37;70.87;146744.22;5152879;27;20095;-64
2023/03/10 01:55:54;;;;;;;5.18;3.80;;;;;;;-2.40;70.55;146736.59;5133376;27;20154;-65
2023/03/10 01:58:23;;;;;;;4.30;3.13;;;;;;;-2.33;70.70;146753.13;5145858;27;20023;-64
2023/03/10 02:00:52;;;;;;;3.90;3.50;;;;;;;-2.44;70.20;146726.44;5134672;27;20316;-66
2023/03/10 02:03:31;;;;;;;6.72;3.50;;;;;;;-2.51;71.19;146708.69;5146016;27;20457;-64
2023/03/10 02:06:05;;;;;;;5.18;3.50;;;;;;;-2.43;69.86;146729.00;5157017;27;20022;-65
2023/03/10 02:08:37;;;;;;;6.25;3.83;;;;;;;-2.74;69.07;146652.88;5148643;27;20037;-66
2023/03/10 02:11:04;;;;;;;3.58;3.20;;;;;;;-2.88;69.51;146617.38;5151007;27;20031;-64
2023/03/10 02:13:29;;;;;;;5.70;3.70;;;;;;;-2.62;69.83;146682.09;5152784;27;20234;-65
2023/03/10 02:15:55;;;;;;;4.00;2.80;;;;;;;-3.02;68.61;146583.13;5147960;27;20023;-65
2023/03/10 02:18:21;;;;;;;4.45;3.53;;;;;;;-2.99;68.79;146592.03;5157938;27;20026;-65
2023/03/10 02:21:05;;;;;;;4.63;3.35;;;;;;;-2.83;69.61;146630.06;5148911;27;20487;-64
2023/03/10 02:23:45;;;;;;;4.22;3.50;;;;;;;-3.16;68.14;146548.94;5154709;27;20199;-65
2023/03/10 02:26:26;;;;;;;4.38;3.38;;;;;;;-3.14;68.14;146555.22;5150216;27;20105;-65
2023/03/10 02:28:54;;;;;;;3.90;3.25;;;;;;;-3.27;67.19;146522.28;5148063;27;20030;-64
2023/03/10 02:31:22;;;;;;;5.88;3.60;;;;;;;-3.24;67.06;146528.63;5153789;27;20204;-65
2023/03/10 02:33:49;;;;;;;4.10;3.50;;;;;;;-3.39;67.30;146491.84;5145162;27;20023;-65
2023/03/10 02:36:20;;;;;;;4.90;3.50;;;;;;;-3.31;65.96;146513.44;5157896;27;20126;-65
2023/03/10 02:38:46;;;;;;;4.50;3.30;;;;;;;-3.26;66.81;146524.84;5131045;27;20217;-64
2023/03/10 02:41:27;;;;;;;5.15;3.50;;;;;;;-3.20;67.13;146538.78;5145344;27;20039;-65
2023/03/10 02:43:54;;;;;;;5.07;3.53;;;;;;;-3.12;66.72;146559.09;5148492;27;20038;-64
2023/03/10 02:46:21;;;;;;;4.90;3.65;;;;;;;-3.25;66.37;146526.09;5145535;27;20312;-65
2023/03/10 02:48:47;;;;;;;4.47;3.38;;;;;;;-3.33;65.87;146508.34;5158568;27;20082;-64
2023/03/10 02:51:17;;;;;;;4.20;3.30;;;;;;;-3.19;66.46;146542.59;5149856;27;20027;-64
2023/03/10 02:53:43;;;;;;;4.75;3.60;;;;;;;-3.11;67.86;146561.56;5155502;27;20031;-64
2023/03/10 02:56:08;;;;;;;7.78;3.53;;;;;;;-3.03;67.24;146581.88;5152622;27;20084;-64
2023/03/10 02:58:34;;;;;;;4.68;3.47;;;;;;;-3.26;66.14;146524.84;5144529;27;20040;-65
2023/03/10 03:01:00;;;;;;;4.82;3.70;;;;;;;-3.14;66.54;146553.97;5157746;27;20034;-66
2023/03/10 03:03:26;;;;;;;4.53;3.53;;;;;;;-3.18;67.30;146545.13;5144608;27;20023;-64
2023/03/10 03:05:52;;;;;;;4.50;3.50;;;;;;;-3.10;66.93;146564.13;5156269;27;20068;-64
2023/03/10 03:08:18;;;;;;;3.60;3.25;;;;;;;-3.04;67.69;146578.06;5152587;27;20319;-65
2023/03/10 03:10:44;;;;;;;3.95;3.28;;;;;;;-3.17;66.49;146547.63;5128072;27;20047;-64
2023/03/10 03:13:11;;;;;;;3.42;3.13;;;;;;;-3.18;66.27;146543.84;5157090;27;20038;-67
2023/03/10 03:15:36;;;;;;;4.55;3.28;;;;;;;-3.26;66.47;146523.53;5150722;27;20019;-66
2023/03/10 03:18:03;;;;;;;4.63;3.33;;;;;;;-3.32;66.75;146510.88;5139069;27;20023;-66
2023/03/10 03:20:30;;;;;;;3.70;2.70;;;;;;;-3.49;66.32;146467.81;5122450;27;20023;-65
2023/03/10 03:22:57;;;;;;;3.45;3.15;;;;;;;-3.34;66.80;146505.78;5129631;27;20079;-64
2023/03/10 03:25:24;;;;;;;4.03;3.03;;;;;;;-3.24;66.37;146528.63;5156045;27;20058;-64
2023/03/10 03:27:50;;;;;;;3.97;2.97;;;;;;;-3.12;67.22;146560.31;5150758;27;20110;-65
2023/03/10 03:30:21;;;;;;;4.18;3.00;;;;;;;-3.32;65.94;146509.59;5140815;27;20208;-66
2023/03/10 03:32:47;;;;;;;4.85;3.45;;;;;;;-3.22;67.05;146533.69;5141343;27;20026;-65
2023/03/10 03:35:16;;;;;;;5.40;3.70;;;;;;;-3.42;65.91;146485.56;5149611;27;20026;-67
2023/03/10 03:37:43;;;;;;;4.38;3.42;;;;;;;-3.24;65.60;146528.63;5154318;27;20090;-66
2023/03/10 03:40:13;;;;;;;4.05;3.50;;;;;;;-3.22;67.02;146534.97;5149168;27;20076;-66
2023/03/10 03:42:43;;;;;;;4.55;3.30;;;;;;;-3.22;66.72;146533.69;5143456;27;20269;-66
2023/03/10 03:45:12;;;;;;;3.85;3.20;;;;;;;-3.15;67.67;146551.44;5126691;27;20333;-66
2023/03/10 03:47:38;;;;;;;4.95;3.95;;;;;;;-3.02;67.22;146583.13;5132856;27;20030;-66
2023/03/10 03:50:06;;;;;;;4.57;3.17;;;;;;;-3.44;66.58;146480.44;5133740;27;20027;-66
2023/03/10 03:52:32;;;;;;;4.75;3.42;;;;;;;-3.13;67.52;146556.53;5106624;27;20106;-65
2023/03/10 03:54:58;;;;;;;4.60;3.28;;;;;;;-3.15;68.05;146552.72;5122399;28;20034;-66
2023/03/10 03:57:24;;;;;;;4.05;3.10;;;;;;;-3.24;66.75;146529.88;5130438;27;20023;-63
2023/03/10 03:59:50;;;;;;;4.00;3.22;;;;;;;-3.13;66.49;146557.78;5133524;27;20082;-64
2023/03/10 04:02:16;;;;;;;4.43;3.55;;;;;;;-3.07;66.47;146570.47;5138619;27;20379;-65
2023/03/10 04:04:41;;;;;;;5.50;3.75;;;;;;;-3.24;66.64;146528.63;5125164;27;20024;-65
2023/03/10 04:07:07;;;;;;;4.50;3.55;;;;;;;-3.21;66.45;146537.47;5137352;27;20344;-65
2023/03/10 04:09:33;;;;;;;5.38;3.67;;;;;;;-3.34;66.09;146505.78;5147786;27;20019;-65
2023/03/10 04:11:58;;;;;;;4.00;3.60;;;;;;;-3.35;66.04;146502.00;5143237;27;20035;-66
2023/03/10 04:14:24;;;;;;;3.53;2.90;;;;;;;-3.28;66.19;146518.50;5149227;27;20200;-65
2023/03/10 04:16:49;;;;;;;3.33;3.03;;;;;;;-3.43;66.40;146483.00;5142932;27;20047;-65
2023/03/10 04:19:15;;;;;;;3.78;2.72;;;;;;;-3.37;66.62;146498.19;5128524;27;20294;-66
2023/03/10 04:21:41;;;;;;;3.58;2.90;;;;;;;-3.42;65.77;146484.25;5124988;27;20206;-65
2023/03/10 04:24:07;;;;;;;3.20;2.83;;;;;;;-3.38;65.48;146495.66;5143867;27;20093;-66
2023/03/10 04:26:32;;;;;;;3.78;3.00;;;;;;;-3.54;65.30;146455.13;5151579;27;20148;-65
2023/03/10 04:28:58;;;;;;;5.13;2.58;;;;;;;-3.52;65.85;146460.16;5129168;27;20023;-65
2023/03/10 04:31:25;;;;;;;4.00;3.15;;;;;;;-3.69;66.56;146418.34;5136538;27;20123;-64
2023/03/10 04:33:51;;;;;;;4.55;3.00;;;;;;;-3.66;65.93;146427.22;5133248;27;20059;-65
2023/03/10 04:36:18;;;;;;;4.60;3.13;;;;;;;-3.70;65.22;146415.84;5142612;27;20326;-65
2023/03/10 04:38:44;;;;;;;3.95;3.15;;;;;;;-3.62;65.13;146436.06;5152819;27;20033;-64
2023/03/10 04:41:09;;;;;;;4.00;3.03;;;;;;;-3.75;64.77;146403.16;5142862;27;20027;-65
2023/03/10 04:43:35;;;;;;;3.88;2.67;;;;;;;-3.61;64.19;146437.38;5142459;27;20045;-65
2023/03/10 04:46:01;;;;;;;7.05;3.40;;;;;;;-3.52;65.30;146460.16;5137569;27;20022;-65
2023/03/10 04:48:27;;;;;;;3.20;2.90;;;;;;;-3.56;65.49;146450.03;5126388;27;20027;-67
2023/03/10 04:51:06;;;;;;;3.90;3.30;;;;;;;-3.53;65.44;146457.66;5135725;27;20366;-66
2023/03/10 04:53:32;;;;;;;3.83;3.00;;;;;;;-3.68;64.92;146422.19;5124042;28;20038;-66
2023/03/10 04:55:58;;;;;;;4.25;3.03;;;;;;;-3.70;64.91;146415.84;5112996;28;20042;-68
2023/03/10 04:58:24;;;;;;;4.15;2.95;;;;;;;-3.62;65.52;146434.81;5142644;28;20097;-68
2023/03/10 05:00:50;;;;;;;3.83;3.13;;;;;;;-3.58;65.54;146444.97;5144578;27;20023;-67
2023/03/10 05:03:16;;;;;;;3.25;2.95;;;;;;;-3.77;65.79;146398.09;5141512;28;20031;-68
2023/03/10 05:05:42;;;;;;;4.03;3.08;;;;;;;-3.60;66.27;146439.94;5145481;27;20030;-66
2023/03/10 05:08:08;;;;;;;3.17;2.78;;;;;;;-3.60;65.83;146439.94;5146815;27;20035;-65
2023/03/10 05:10:34;;;;;;;4.63;3.70;;;;;;;-3.50;66.49;146465.25;5149511;27;20042;-67
2023/03/10 05:12:59;;;;;;;4.03;3.60;;;;;;;-3.74;65.70;146406.94;5144593;27;20094;-66
2023/03/10 05:15:25;;;;;;;3.72;3.15;;;;;;;-3.67;66.26;146423.44;5130585;28;20023;-66
2023/03/10 05:17:50;;;;;;;4.38;3.42;;;;;;;-3.80;66.11;146391.75;5145873;27;20034;-67
2023/03/10 05:20:16;;;;;;;4.95;3.33;;;;;;;-3.79;66.13;146394.31;5148045;27;20245;-68
2023/03/10 05:22:42;;;;;;;5.55;3.33;;;;;;;-3.77;66.02;146399.34;5134672;27;20030;-67
2023/03/10 05:25:10;;;;;;;4.35;3.25;;;;;;;-3.97;66.22;146349.94;5149237;27;20039;-67
2023/03/10 05:27:37;;;;;;;9.30;3.90;;;;;;;-3.95;66.20;146353.75;5158911;27;20034;-66
2023/03/10 05:30:04;;;;;;;4.18;3.50;;;;;;;-4.06;66.77;146327.13;5150332;27;20031;-67
2023/03/10 05:32:33;;;;;;;4.22;3.75;;;;;;;-3.85;66.31;146379.06;5153193;27;20090;-67
2023/03/10 05:34:59;;;;;;;4.88;4.35;;;;;;;-3.73;67.52;146409.50;5152582;27;20065;-67
2023/03/10 05:37:24;;;;;;;5.07;4.22;;;;;;;-3.74;65.77;146406.94;5145547;27;20106;-65
2023/03/10 05:39:50;;;;;;;6.75;3.75;;;;;;;-3.61;66.48;146437.38;5156831;27;20086;-67
2023/03/10 05:42:16;;;;;;;5.10;4.28;;;;;;;-3.66;65.79;146427.22;5146211;27;20031;-66
2023/03/10 05:44:42;;;;;;;4.82;3.72;;;;;;;-3.76;66.77;146401.91;5136684;27;20033;-66
2023/03/10 05:47:08;;;;;;;4.85;3.80;;;;;;;-3.71;66.06;146414.53;5123706;27;20026;-66
2023/03/10 05:49:33;;;;;;;6.30;3.95;;;;;;;-3.75;66.43;146403.16;5145968;27;20099;-67
2023/03/10 05:51:59;;;;;;;5.53;4.15;;;;;;;-3.76;66.40;146400.59;5159308;27;20030;-68
2023/03/10 05:54:25;;;;;;;4.07;3.67;;;;;;;-3.76;66.76;146401.91;5112394;28;20024;-65
2023/03/10 05:56:50;;;;;;;6.63;4.45;;;;;;;-3.67;65.75;146424.69;5134295;27;20086;-66
2023/03/10 05:59:16;;;;;;;5.50;4.45;;;;;;;-3.75;65.62;146403.16;5136253;27;20315;-66
2023/03/10 06:01:42;;;;;;;5.28;4.05;;;;;;;-3.63;65.56;146433.56;5142160;27;20043;-66
2023/03/10 06:04:08;;;;;;;4.40;4.00;;;;;;;-3.74;65.30;146405.69;5131819;27;20091;-67
2023/03/10 06:06:34;;;;;;;4.45;4.00;;;;;;;-3.52;65.85;146460.16;5151427;27;20027;-67
2023/03/10 06:08:59;;;;;;;4.70;4.05;;;;;;;-3.50;65.44;146465.25;5135314;27;20019;-67
2023/03/10 06:11:25;;;;;;;6.93;4.28;;;;;;;-3.58;65.82;146446.22;5153897;27;20095;-67
2023/03/10 06:13:51;;;;;;;5.50;4.28;;;;;;;-3.56;64.73;146451.31;5144416;27;20319;-68
2023/03/10 06:16:16;;;;;;;4.80;4.03;;;;;;;-3.49;64.88;146469.06;5158961;27;20536;-66
2023/03/10 06:18:42;;;;;;;5.65;4.18;;;;;;;-3.51;65.76;146463.97;5151746;27;20023;-65
2023/03/10 06:21:11;;;;;;;5.28;4.32;;;;;;;-3.38;64.41;146495.66;5156731;27;20050;-66
2023/03/10 06:23:37;;;;;;;4.90;4.18;;;;;;;-3.46;65.40;146475.41;5153484;27;20102;-67
2023/03/10 06:26:12;;;;;;;7.50;4.82;;;;;;;-3.41;65.42;146486.81;5148258;27;20050;-66
2023/03/10 06:28:41;;;;;;;6.43;4.80;;;;;;;-3.48;65.13;146471.59;5156218;27;20207;-66
2023/03/10 06:31:13;;;;;;;5.78;4.38;;;;;;;-3.18;64.44;146545.13;5151822;27;20133;-66
2023/03/10 06:33:39;;;;;;;5.35;4.30;;;;;;;-3.15;64.66;146551.44;5153935;27;20192;-67
2023/03/10 06:36:05;;;;;;;6.88;4.88;;;;;;;-3.07;65.51;146571.72;5151894;27;20026;-66
2023/03/10 06:38:30;;;;;;;7.78;5.03;;;;;;;-3.37;63.49;146496.94;5145005;27;20033;-66
2023/03/10 06:40:57;;;;;;;5.32;4.82;;;;;;;-3.32;64.15;146510.88;5135324;27;20050;-66
2023/03/10 06:43:23;;;;;;;6.85;5.43;;;;;;;-3.50;63.60;146465.25;5126481;27;20101;-65
2023/03/10 06:45:49;;;;;;;7.93;4.40;;;;;;;-3.30;64.34;146514.69;5160835;27;20136;-66
2023/03/10 06:48:15;;;;;;;6.13;4.93;;;;;;;-3.27;64.04;146521.03;5152776;27;20023;-66
2023/03/10 06:50:42;;;;;;;7.68;4.88;;;;;;;-3.32;63.33;146509.59;5134774;27;20035;-66
2023/03/10 06:53:09;;;;;;;5.88;4.97;;;;;;;-3.32;63.32;146510.88;5151132;27;20045;-66
2023/03/10 06:55:35;;;;;;;8.13;5.10;;;;;;;-3.30;63.88;146514.69;5143933;27;20027;-66
2023/03/10 06:58:01;;;;;;;8.23;5.28;;;;;;;-3.34;64.21;146504.53;5160999;27;20027;-66
2023/03/10 07:00:26;;;;;;;8.20;5.55;;;;;;;-3.39;64.64;146491.84;5152515;27;20046;-66
2023/03/10 07:03:01;;;;;;;6.03;4.82;;;;;;;-3.26;63.76;146523.53;5144592;27;20371;-68
2023/03/10 07:06:04;;;;;;;5.68;4.75;;;;;;;-3.66;63.23;146425.97;5143998;27;20050;-66
2023/03/10 07:08:29;;;;;;;4.60;4.18;;;;;;;-3.32;64.23;146510.88;5142051;27;20023;-67
2023/03/10 07:10:55;;;;;;;6.95;4.65;;;;;;;-3.15;64.67;146551.44;5145004;27;20076;-67
2023/03/10 07:13:22;;;;;;;5.82;4.13;;;;;;;-2.67;64.21;146669.38;5151890;27;20030;-66
2023/03/10 07:15:47;;;;;;;5.97;4.40;;;;;;;-2.91;61.90;146611.03;5144320;27;20031;-66
2023/03/10 07:18:14;;;;;;;7.95;5.03;;;;;;;-2.66;62.69;146671.94;5153332;27;20015;-66
2023/03/10 07:20:41;;;;;;;7.88;4.30;;;;;;;-2.43;61.99;146730.25;5126543;27;20042;-66
2023/03/10 07:23:16;;;;;;;6.13;5.10;;;;;;;-2.39;61.88;146739.16;5128086;27;20045;-66
2023/03/10 07:25:42;;;;;;;6.45;5.30;;;;;;;-2.47;60.91;146720.09;5130707;27;20216;-67
2023/03/10 07:28:07;;;;;;;5.85;4.53;;;;;;;-2.62;59.42;146683.34;5125749;27;20047;-67
2023/03/10 07:30:33;;;;;;;5.28;4.18;;;;;;;-2.65;59.07;146675.72;5143611;27;20027;-67
2023/03/10 07:32:59;;;;;;;5.07;4.00;;;;;;;-2.68;59.40;146666.84;5143636;27;20038;-66
2023/03/10 07:35:33;;;;;;;5.35;4.20;;;;;;;-2.79;59.90;146641.47;5149601;27;20035;-66
2023/03/10 07:38:07;;;;;;;4.03;3.60;;;;;;;-2.76;59.45;146647.81;5143348;27;20030;-66
2023/03/10 07:40:40;;;;;;;5.75;4.15;;;;;;;-2.84;60.03;146628.78;5138488;27;20030;-66
2023/03/10 07:43:09;;;;;;;4.97;4.10;;;;;;;-2.97;59.63;146597.06;5132309;27;20324;-66
2023/03/10 07:45:41;;;;;;;5.82;4.45;;;;;;;-2.70;60.09;146661.78;5124955;27;20051;-66
2023/03/10 07:48:06;;;;;;;4.90;3.55;;;;;;;-2.58;58.23;146690.94;5132832;27;20042;-66
2023/03/10 07:50:32;;;;;;;5.95;4.65;;;;;;;-2.58;60.04;146690.94;5139835;27;20100;-66
2023/03/10 07:52:57;;;;;;;5.90;4.10;;;;;;;-2.65;59.35;146675.72;5124756;27;20030;-67
2023/03/10 07:55:29;;;;;;;4.63;4.18;;;;;;;-2.62;59.59;146683.34;5141444;27;20050;-67
2023/03/10 07:57:59;;;;;;;4.10;3.67;;;;;;;-2.62;59.84;146682.09;5143009;27;20292;-66
2023/03/10 08:00:26;;;;;;;5.15;4.00;;;;;;;-2.68;58.84;146668.13;5154151;27;20026;-65
2023/03/10 08:02:51;;;;;;;4.03;3.63;;;;;;;-2.75;59.65;146650.38;5142892;27;20087;-66
2023/03/10 08:05:17;;;;;;;5.22;3.30;;;;;;;-2.67;58.51;146670.63;5147083;27;20034;-67
2023/03/10 08:07:43;;;;;;;5.53;3.50;;;;;;;-2.48;58.81;146717.59;5150064;27;20312;-66
2023/03/10 08:10:09;;;;;;;3.55;3.25;;;;;;;-1.92;56.83;146855.88;5142745;27;20035;-67
2023/03/10 08:12:35;;;;;;;4.53;3.38;;;;;;;-1.88;56.43;146863.50;5154741;27;20039;-66
2023/03/10 08:15:08;;;;;;;5.43;3.45;;;;;;;-1.97;55.02;146841.94;5145385;27;20026;-66
2023/03/10 08:17:33;;;;;;;4.55;3.50;;;;;;;-1.85;56.73;146872.41;5145013;27;20026;-66
2023/03/10 08:19:59;;;;;;;4.85;3.65;;;;;;;-1.78;55.22;146888.88;5110644;28;20031;-67
2023/03/10 08:22:26;;;;;;;3.92;3.53;;;;;;;-1.46;54.83;146967.59;5136291;27;20050;-65
2023/03/10 08:24:52;;;;;;;3.90;3.45;;;;;;;-1.43;53.36;146975.22;5154823;27;20062;-66
2023/03/10 08:27:18;;;;;;;5.35;2.90;;;;;;;-1.65;53.89;146921.91;5146566;27;20326;-66
2023/03/10 08:29:44;;;;;;;3.10;2.58;;;;;;;-2.12;53.33;146805.16;5150078;27;20046;-65
2023/03/10 08:32:09;;;;;;;3.97;2.90;;;;;;;-2.03;53.95;146827.97;5150058;27;20479;-66
2023/03/10 08:34:35;;;;;;;3.80;2.83;;;;;;;-2.09;53.52;146814.00;5142752;27;20026;-66
2023/03/10 08:37:01;;;;;;;3.05;2.75;;;;;;;-1.93;53.79;146853.34;5154513;27;20027;-66
2023/03/10 08:39:27;;;;;;;4.20;3.03;;;;;;;-1.76;55.07;146893.97;5146633;27;20027;-65
2023/03/10 08:41:54;;;;;;;3.17;2.78;;;;;;;-1.69;53.43;146911.75;5146142;27;20041;-67
2023/03/10 08:44:29;;;;;;;3.60;3.28;;;;;;;-1.69;55.43;146910.50;5150793;27;20030;-66
2023/03/10 08:46:54;;;;;;;3.80;3.15;;;;;;;-1.71;54.88;146906.69;5126295;27;20330;-66
2023/03/10 08:49:32;;;;;;;4.20;3.55;;;;;;;-1.57;56.02;146942.22;5146891;27;20058;-67
2023/03/10 08:51:58;;;;;;;4.63;3.42;;;;;;;-1.51;56.16;146954.91;5138367;27;20034;-67
2023/03/10 08:54:27;;;;;;;4.20;3.63;;;;;;;-1.48;55.84;146963.81;5138081;27;20086;-66
2023/03/10 08:56:53;;;;;;;4.47;3.50;;;;;;;-1.52;54.60;146953.63;5136671;27;20106;-66
2023/03/10 08:59:19;;;;;;;6.13;2.92;;;;;;;-1.90;54.08;146859.69;5117538;27;20031;-67
2023/03/10 09:01:46;;;;;;;7.05;3.45;;;;;;;-1.78;56.01;146888.88;5150921;27;20034;-67
2023/03/10 09:04:12;;;;;;;7.45;3.20;;;;;;;-1.73;57.12;146901.59;5139016;27;20027;-65
2023/03/10 09:06:38;;;;;;;4.38;3.38;;;;;;;-2.16;55.25;146795.00;5138401;28;20090;-67
2023/03/10 09:09:04;;;;;;;6.25;4.32;;;;;;;-2.06;55.65;146819.09;5145176;27;20019;-65
2023/03/10 09:11:32;;;;;;;4.03;3.40;;;;;;;-2.06;55.05;146820.34;5140644;28;20023;-68
2023/03/10 09:13:59;;;;;;;6.40;4.65;;;;;;;-2.07;56.56;146817.81;5139149;27;20086;-67
2023/03/10 09:16:29;;;;;;;6.70;3.38;;;;;;;-2.35;57.82;146749.31;5151417;27;20027;-67
2023/03/10 09:18:56;;;;;;;3.60;2.95;;;;;;;-2.18;57.48;146789.88;5144455;27;20082;-66
2023/03/10 09:21:22;;;;;;;3.42;3.13;;;;;;;-2.26;57.10;146772.13;5141174;27;20177;-67
2023/03/10 09:23:53;;;;;;;;;;;;;;;-1.99;56.99;146836.88;5127897;27;20095;-66
2023/03/10 09:26:20;;;;;;;3.70;2.92;;;;;;;-2.00;56.61;146835.56;5148941;27;20118;-66
2023/03/10 09:28:48;;;;;;;3.10;2.70;;;;;;;-1.95;56.24;146847.03;5137822;28;20023;-67
2023/03/10 09:31:35;;;;;;;4.75;2.90;;;;;;;-1.95;54.68;146848.28;5153352;27;20045;-65
2023/03/10 09:34:01;;;;;;;4.18;2.75;;;;;;;-2.05;56.91;146822.91;5140508;27;20084;-66
2023/03/10 09:36:28;;;;;;;5.10;3.47;;;;;;;-2.21;57.91;146783.53;5149696;27;20031;-66
2023/03/10 09:38:55;;;;;;;4.60;3.28;;;;;;;-1.87;56.87;146867.28;5125239;28;20023;-66
2023/03/10 09:41:30;;;;;;;5.53;3.20;;;;;;;-1.89;57.13;146862.25;5110470;28;20053;-65
2023/03/10 09:44:37;;;;;;;4.00;3.20;;;;;;;-1.87;55.84;146866.03;5140980;27;20035;-66
2023/03/10 09:47:26;;;;;;;4.45;3.30;;;;;;;-2.17;56.48;146793.69;5126715;27;20334;-66
2023/03/10 09:50:18;;;;;;;5.30;3.58;;;;;;;-1.97;57.56;146841.94;5149958;27;20059;-65
2023/03/10 09:53:03;;;;;;;3.88;2.95;;;;;;;-1.76;56.92;146893.97;5140545;28;20035;-67
2023/03/10 09:55:34;;;;;;;3.60;2.75;;;;;;;-1.81;56.46;146881.25;5133780;28;20033;-66
2023/03/10 09:57:59;;;;;;;4.28;3.55;;;;;;;-1.54;57.29;146948.53;5143580;27;20095;-65
2023/03/10 10:00:37;;;;;;;3.40;2.92;;;;;;;-1.88;55.88;146863.50;5154760;27;20022;-66
2023/03/10 10:03:31;;;;;;;3.70;2.97;;;;;;;-1.85;55.53;146872.41;5138247;27;20065;-65
2023/03/10 10:05:58;;;;;;;4.72;3.25;;;;;;;-2.06;57.38;146820.34;5150678;27;20054;-66
2023/03/10 10:09:00;;;;;;;3.92;3.05;;;;;;;-1.94;56.52;146849.53;5153981;27;20514;-65
2023/03/10 10:11:28;;;;;;;4.75;3.22;;;;;;;-1.87;55.46;146867.28;5122881;27;20069;-65
2023/03/10 10:14:14;;;;;;;4.85;3.13;;;;;;;-2.04;54.50;146824.16;5136483;27;20207;-67
2023/03/10 10:16:53;;;;;;;3.95;2.90;;;;;;;-2.10;56.91;146811.44;5142295;27;20045;-67
2023/03/10 10:19:21;;;;;;;3.20;2.90;;;;;;;-2.07;57.14;146817.81;5144928;27;20397;-66
2023/03/10 10:21:56;;;;;;;3.25;2.95;;;;;;;-1.96;55.48;146845.72;5150959;27;20357;-67
2023/03/10 10:24:21;;;;;;;4.97;3.60;;;;;;;-1.74;57.89;146899.03;5157587;27;20064;-67
2023/03/10 10:26:47;;;;;;;5.95;3.60;;;;;;;-1.62;56.92;146928.25;5154543;27;20030;-68
2023/03/10 10:29:16;;;;;;;4.35;3.17;;;;;;;-1.61;56.76;146930.75;5129134;27;20023;-66
2023/03/10 10:31:41;;;;;;;4.22;2.80;;;;;;;-2.00;56.73;146835.56;5154031;27;20026;-66
2023/03/10 10:34:21;;;;;;;3.08;2.58;;;;;;;-2.09;55.26;146814.00;5133752;27;20235;-65
2023/03/10 10:36:55;;;;;;;2.80;2.53;;;;;;;-2.10;55.94;146810.19;5125013;27;20077;-66
2023/03/10 10:39:27;;;;;;;2.67;2.47;;;;;;;-2.35;55.56;146749.31;5130509;27;20035;-66
2023/03/10 10:41:53;;;;;;;3.97;2.72;;;;;;;-2.32;55.95;146756.91;5115216;27;20080;-67
2023/03/10 10:44:20;;;;;;;3.10;2.80;;;;;;;-2.06;56.57;146819.09;5147786;27;20348;-66
2023/03/10 10:46:56;;;;;;;4.13;3.08;;;;;;;-1.96;56.54;146845.72;5131061;27;20030;-66
2023/03/10 10:49:27;;;;;;;5.88;2.95;;;;;;;-1.96;58.21;146845.72;5160842;27;20304;-67
2023/03/10 10:52:05;;;;;;;5.20;3.45;;;;;;;-1.89;57.63;146862.25;5146407;27;20263;-65
2023/03/10 10:54:37;;;;;;;4.10;3.03;;;;;;;-1.65;55.73;146921.91;5157623;27;20203;-66
2023/03/10 10:57:20;;;;;;;6.43;3.15;;;;;;;-1.78;57.16;146890.16;5154780;27;20033;-66
2023/03/10 10:59:46;;;;;;;4.57;3.10;;;;;;;-1.40;54.81;146982.84;5143784;27;20042;-69
2023/03/10 11:02:22;;;;;;;3.53;2.63;;;;;;;-1.09;54.86;147059.03;5126498;27;20027;-66
2023/03/10 11:04:48;;;;;;;3.85;2.95;;;;;;;-1.11;53.92;147053.94;5144158;27;20239;-67
2023/03/10 11:07:19;;;;;;;3.00;2.70;;;;;;;-0.89;53.47;147108.56;5144541;27;20031;-67
2023/03/10 11:09:46;;;;;;;4.75;3.38;;;;;;;-0.80;55.27;147130.16;5152803;27;20060;-67
2023/03/10 11:12:30;;;;;;;4.35;3.72;;;;;;;-0.50;53.94;147203.88;5145939;27;20071;-66
2023/03/10 11:15:43;;;;;;;3.95;3.22;;;;;;;-0.65;51.28;147168.28;5151479;27;20015;-67
2023/03/10 11:18:21;;;;;;;3.58;2.75;;;;;;;-1.13;53.07;147048.88;5130694;27;20043;-66
2023/03/10 11:21:21;;;;;;;3.97;2.75;;;;;;;-0.99;51.93;147083.19;5151628;27;20023;-67
2023/03/10 11:24:03;;;;;;;4.18;3.22;;;;;;;-1.09;52.01;147059.03;5129858;27;20031;-66
2023/03/10 11:26:46;;;;;;;;;;;;;;;-0.98;52.97;147087.00;5144497;27;20059;-66
2023/03/10 11:29:26;;;;;;;2.80;2.45;;;;;;;-1.53;51.52;146949.84;5142794;27;20135;-69
2023/03/10 11:31:54;;;;;;;2.90;2.60;;;;;;;-1.51;53.39;146954.91;5141908;27;20058;-66